Time;durP1;ratioP1;P1;durP2;ratioP2;P2;SDS_P1;SDS_P2;PMS_P1;PMS_P2;Temp;Humidity;BMP_temperature;BMP_pressure;BME280_temperature;BME280_humidity;BME280_pressure;Samples;Min_cycle;Max_cycle;Signal;HPM_P1;HPM_P2
2023/07/04 00:01:47;;;;;;;27.40;20.10;;;;;;;20.36;100.00;98566.27;109370;1252;59898;-77
2023/07/04 00:04:23;;;;;;;29.60;21.70;;;;;;;20.35;100.00;98568.69;109362;1252;63720;-74
2023/07/04 00:06:50;;;;;;;27.00;20.60;;;;;;;20.34;100.00;98567.21;109219;1252;59067;-75
2023/07/04 00:09:17;;;;;;;26.40;20.80;;;;;;;20.31;100.00;98565.50;109385;1252;59036;-75
2023/07/04 00:11:44;;;;;;;27.10;20.00;;;;;;;20.28;100.00;98565.75;109423;1252;65721;-75
2023/07/04 00:14:11;;;;;;;24.70;21.00;;;;;;;20.24;100.00;98571.58;109421;1252;60373;-74
2023/07/04 00:16:38;;;;;;;25.90;20.20;;;;;;;20.21;100.00;98568.85;109392;1252;62902;-75
2023/07/04 00:19:06;;;;;;;26.40;20.10;;;;;;;20.17;100.00;98565.52;109351;1252;59033;-74
2023/07/04 00:21:32;;;;;;;24.50;19.50;;;;;;;20.13;100.00;98559.64;109393;1252;59456;-75
2023/07/04 00:23:59;;;;;;;26.40;19.10;;;;;;;20.09;100.00;98563.20;109415;1252;65832;-75
2023/07/04 00:26:26;;;;;;;27.90;20.20;;;;;;;20.04;100.00;98566.19;109445;1252;59077;-75
2023/07/04 00:28:53;;;;;;;26.40;20.90;;;;;;;20.00;100.00;98566.85;109401;1252;63814;-74
2023/07/04 00:31:23;;;;;;;28.70;21.50;;;;;;;19.97;100.00;98566.31;109388;1252;59032;-75
2023/07/04 00:33:50;;;;;;;27.70;20.90;;;;;;;19.93;100.00;98560.84;109127;1252;59390;-75
2023/07/04 00:36:18;;;;;;;29.10;20.90;;;;;;;19.88;100.00;98558.45;109394;1252;66038;-75
2023/07/04 00:38:48;;;;;;;28.40;21.80;;;;;;;19.83;100.00;98557.10;109424;1252;59839;-74
2023/07/04 00:41:21;;;;;;;29.00;21.00;;;;;;;19.78;100.00;98557.31;109386;1252;62564;-74
2023/07/04 00:46:39;;;;;;;26.50;20.60;;;;;;;19.70;100.00;98556.01;109402;1253;58860;-75
2023/07/04 00:49:22;;;;;;;27.90;21.30;;;;;;;19.67;100.00;98558.73;109358;1252;66070;-75
2023/07/04 00:52:04;;;;;;;29.90;21.20;;;;;;;19.63;100.00;98560.88;109428;1252;59017;-75
2023/07/04 00:54:57;;;;;;;30.00;22.30;;;;;;;19.62;100.00;98564.27;109402;1252;64104;-75
2023/07/04 00:57:31;;;;;;;27.40;22.10;;;;;;;19.60;100.00;98560.52;109413;1252;58984;-75
2023/07/04 01:00:06;;;;;;;26.40;21.50;;;;;;;19.60;100.00;98558.63;109392;1252;58871;-75
2023/07/04 01:02:35;;;;;;;26.00;20.70;;;;;;;19.61;100.00;98554.98;109406;1252;64803;-75
2023/07/04 01:05:06;;;;;;;29.60;21.30;;;;;;;19.63;100.00;98555.34;109404;1252;61109;-75
2023/07/04 01:07:49;;;;;;;32.40;21.60;;;;;;;19.63;100.00;98556.17;109411;1252;62976;-75
2023/07/04 01:10:33;;;;;;;23.80;19.60;;;;;;;19.64;100.00;98562.09;109411;1252;59642;-74
2023/07/04 01:13:00;;;;;;;26.80;20.60;;;;;;;19.62;100.00;98558.69;109372;1252;58997;-75
2023/07/04 01:15:30;;;;;;;26.50;20.30;;;;;;;19.61;100.00;98564.50;109454;1252;64530;-75
2023/07/04 01:18:00;;;;;;;25.20;20.00;;;;;;;19.60;100.00;98574.43;109415;1252;58997;-75
2023/07/04 01:47:10;;;;;;;27.00;19.10;;;;;;;18.93;100.00;98591.52;109488;1252;58990;-75
2023/07/04 01:49:36;;;;;;;26.50;20.50;;;;;;;18.89;100.00;98596.82;109497;1252;66611;-75
2023/07/04 01:52:03;;;;;;;23.70;19.30;;;;;;;18.83;100.00;98598.41;109486;1252;59064;-73
2023/07/04 01:54:30;;;;;;;30.30;20.00;;;;;;;18.79;100.00;98603.91;109235;1253;63173;-75
2023/07/04 01:56:57;;;;;;;26.00;20.90;;;;;;;18.76;100.00;98606.77;109477;1252;59009;-74
2023/07/04 01:59:23;;;;;;;24.10;20.10;;;;;;;18.72;100.00;98604.34;109557;1252;59034;-74
2023/07/04 02:01:50;;;;;;;25.50;19.90;;;;;;;18.68;100.00;98599.20;109525;1252;64774;-74
2023/07/04 02:04:16;;;;;;;25.40;19.70;;;;;;;18.64;100.00;98599.04;109519;1252;59009;-75
2023/07/04 02:06:43;;;;;;;28.20;19.80;;;;;;;18.60;100.00;98601.73;109494;1252;58993;-75
2023/07/04 02:09:09;;;;;;;26.40;19.20;;;;;;;18.57;100.00;98599.77;109389;1253;58995;-75
2023/07/04 02:11:36;;;;;;;23.60;19.10;;;;;;;18.55;100.00;98594.93;109151;1253;59052;-75
2023/07/04 02:14:02;;;;;;;24.40;18.70;;;;;;;18.52;100.00;98594.69;109504;1252;59645;-75
2023/07/04 02:16:29;;;;;;;24.90;19.10;;;;;;;18.50;100.00;98590.12;109506;1252;60154;-75
2023/07/04 02:18:55;;;;;;;21.60;17.50;;;;;;;18.48;100.00;98593.95;109483;1252;58977;-75
2023/07/04 02:21:22;;;;;;;24.30;17.90;;;;;;;18.45;100.00;98592.09;109525;1252;59026;-75
2023/07/04 02:23:48;;;;;;;20.70;16.50;;;;;;;18.42;100.00;98593.27;109556;1252;58981;-75
2023/07/04 02:26:15;;;;;;;18.30;15.90;;;;;;;18.40;100.00;98594.71;109474;1252;64642;-75
2023/07/04 02:28:42;;;;;;;21.60;16.00;;;;;;;18.40;100.00;98593.30;109336;1253;61079;-75
2023/07/04 02:31:09;;;;;;;21.30;16.50;;;;;;;18.40;100.00;98589.89;109520;1252;63028;-75
2023/07/04 02:33:35;;;;;;;18.60;15.30;;;;;;;18.41;100.00;98590.53;109469;1253;58950;-75
2023/07/04 02:36:02;;;;;;;18.80;16.00;;;;;;;18.42;100.00;98595.83;109534;1252;59391;-75
2023/07/04 02:38:28;;;;;;;21.30;15.80;;;;;;;18.42;100.00;98598.32;109526;1252;64869;-75
2023/07/04 02:40:55;;;;;;;17.80;14.60;;;;;;;18.41;100.00;98595.15;109532;1252;60292;-75
2023/07/04 02:43:21;;;;;;;20.20;15.70;;;;;;;18.40;100.00;98590.80;109483;1252;59200;-75
2023/07/04 02:45:48;;;;;;;20.80;15.70;;;;;;;18.38;100.00;98589.03;109492;1253;59096;-75
2023/07/04 03:07:01;;;;;;;21.90;15.60;;;;;;;18.10;100.00;98601.85;109550;1252;59061;-75
2023/07/04 03:09:27;;;;;;;21.20;16.20;;;;;;;18.06;100.00;98609.27;109485;1252;65783;-75
2023/07/04 03:11:54;;;;;;;20.60;16.10;;;;;;;18.07;100.00;98616.05;109486;1252;58973;-74
2023/07/04 03:14:21;;;;;;;21.30;16.40;;;;;;;18.08;100.00;98621.81;109485;1252;62829;-75
2023/07/04 03:16:48;;;;;;;21.30;16.00;;;;;;;18.09;100.00;98619.58;109444;1252;58975;-75
2023/07/04 03:19:14;;;;;;;23.60;17.10;;;;;;;18.08;100.00;98618.45;109510;1253;59050;-75
2023/07/04 03:21:41;;;;;;;21.90;15.30;;;;;;;18.09;100.00;98615.48;109480;1252;66297;-75
2023/07/04 03:24:07;;;;;;;24.00;16.10;;;;;;;18.11;100.00;98619.94;109512;1252;60137;-75
2023/07/04 03:26:34;;;;;;;23.30;15.90;;;;;;;18.14;100.00;98625.39;109529;1252;62880;-75
2023/07/04 03:29:02;;;;;;;20.30;15.00;;;;;;;18.19;100.00;98627.38;109511;1253;58983;-75
2023/07/04 03:31:29;;;;;;;22.40;16.40;;;;;;;18.24;100.00;98624.69;109502;1251;59056;-75
2023/07/04 03:33:55;;;;;;;20.50;15.80;;;;;;;18.26;100.00;98625.56;109507;1251;74704;-75
2023/07/04 03:36:22;;;;;;;21.00;14.80;;;;;;;18.28;100.00;98629.82;109526;1251;58955;-75
2023/07/04 03:38:48;;;;;;;21.70;14.90;;;;;;;18.32;100.00;98629.23;109527;1252;59167;-75
2023/07/04 03:41:14;;;;;;;20.10;14.30;;;;;;;18.36;100.00;98629.46;109500;1253;58965;-76
2023/07/04 03:43:41;;;;;;;24.20;14.90;;;;;;;18.44;100.00;98631.95;109511;1251;59060;-75
2023/07/04 03:46:08;;;;;;;19.70;14.40;;;;;;;18.50;100.00;98632.39;109491;1251;64815;-74
2023/07/04 03:48:35;;;;;;;21.10;14.10;;;;;;;18.54;100.00;98636.99;109559;1251;60304;-75
2023/07/04 03:51:02;;;;;;;18.40;14.40;;;;;;;18.58;100.00;98637.80;109475;1251;64084;-74
2023/07/04 03:53:28;;;;;;;19.30;14.80;;;;;;;18.63;100.00;98644.66;109450;1251;58854;-75
2023/07/04 03:55:55;;;;;;;17.90;13.80;;;;;;;18.69;100.00;98655.20;109541;1251;58854;-74
2023/07/04 03:58:23;;;;;;;20.20;14.30;;;;;;;18.75;100.00;98654.21;109538;1253;59299;-75
2023/07/04 04:00:50;;;;;;;17.90;13.60;;;;;;;18.84;100.00;98652.90;109564;1251;60230;-74
2023/07/04 04:03:17;;;;;;;22.50;15.30;;;;;;;18.95;100.00;98657.13;109504;1251;62812;-75
2023/07/04 04:05:44;;;;;;;23.10;14.80;;;;;;;19.07;100.00;98661.08;109443;1253;59003;-75
2023/07/04 04:08:10;;;;;;;19.40;14.60;;;;;;;19.20;100.00;98661.84;109500;1251;59168;-76
2023/07/04 04:10:37;;;;;;;22.30;17.10;;;;;;;19.38;100.00;98667.27;109510;1251;66101;-75
2023/07/04 04:13:04;;;;;;;21.50;16.60;;;;;;;19.62;100.00;98664.83;109476;1251;58965;-75
2023/07/04 04:15:31;;;;;;;21.20;16.40;;;;;;;20.01;99.46;98658.67;109482;1251;62481;-75
2023/07/04 04:17:58;;;;;;;22.40;14.90;;;;;;;20.32;97.98;98654.13;109478;1251;58958;-75
2023/07/04 04:20:25;;;;;;;20.70;14.60;;;;;;;20.82;94.98;98657.42;109525;1251;59223;-74
2023/07/04 04:22:52;;;;;;;20.10;14.60;;;;;;;21.15;92.96;98663.99;109480;1251;64876;-75
2023/07/04 04:25:19;;;;;;;19.00;13.40;;;;;;;21.43;91.10;98662.61;109518;1251;70072;-75
2023/07/04 04:27:46;;;;;;;17.50;13.40;;;;;;;21.52;89.70;98658.36;109512;1251;64066;-75
2023/07/04 04:30:14;;;;;;;19.10;13.10;;;;;;;21.88;88.11;98663.20;109524;1251;58962;-75
2023/07/04 04:32:41;;;;;;;18.50;13.50;;;;;;;22.25;86.23;98665.70;109342;1254;59204;-76
2023/07/04 04:35:08;;;;;;;15.10;13.30;;;;;;;22.69;84.71;98669.89;109238;1256;66031;-75
2023/07/04 04:37:35;;;;;;;17.40;13.30;;;;;;;23.04;82.16;98672.02;109353;1254;68137;-76
2023/07/04 04:40:04;;;;;;;17.70;13.90;;;;;;;23.66;79.83;98668.33;109036;1254;62815;-76
2023/07/04 04:42:34;;;;;;;17.70;13.90;;;;;;;24.28;76.99;98669.53;109308;1254;58948;-75
2023/07/04 04:45:03;;;;;;;;;;;;;;;24.61;75.14;98670.95;109145;1254;59213;-76
2023/07/04 04:47:33;;;;;;;15.40;13.00;;;;;;;24.85;73.47;98673.36;109330;1254;65939;-76
2023/07/04 04:50:03;;;;;;;16.50;12.60;;;;;;;25.53;71.11;98673.61;109364;1254;60240;-76
2023/07/04 04:52:33;;;;;;;14.10;12.60;;;;;;;26.20;69.29;98679.20;109333;1254;63798;-76
2023/07/04 04:55:02;;;;;;;17.40;12.60;;;;;;;26.80;67.25;98684.59;109317;1254;58985;-76
2023/07/04 04:57:29;;;;;;;18.40;12.60;;;;;;;27.38;65.22;98688.46;109166;1254;59066;-76
2023/07/04 04:59:59;;;;;;;16.20;12.80;;;;;;;27.80;63.51;98684.86;109352;1253;66179;-76
2023/07/04 05:02:28;;;;;;;;;;;;;;;28.20;61.66;98686.37;109362;1254;59973;-75
2023/07/04 05:04:54;;;;;;;17.30;12.30;;;;;;;28.44;60.09;98689.71;109476;1252;62845;-75
2023/07/04 05:07:23;;;;;;;15.50;12.10;;;;;;;28.70;58.71;98685.29;109515;1251;58915;-76
2023/07/04 05:09:53;;;;;;;16.40;12.30;;;;;;;29.02;57.70;98684.44;109573;1251;59039;-75
2023/07/04 05:12:20;;;;;;;;;;;;;;;29.35;56.67;98685.07;109558;1252;64503;-76
2023/07/04 05:14:46;;;;;;;15.00;11.80;;;;;;;29.63;55.81;98687.66;109497;1252;58948;-76
2023/07/04 05:17:13;;;;;;;15.90;12.50;;;;;;;29.88;54.93;98690.20;109505;1251;62836;-76
2023/07/04 05:19:39;;;;;;;17.40;12.30;;;;;;;30.07;53.54;98689.61;109510;1251;59000;-75
2023/07/04 05:22:06;;;;;;;12.40;11.10;;;;;;;30.19;52.89;98689.59;109547;1251;59176;-76
2023/07/04 05:24:32;;;;;;;14.00;11.70;;;;;;;30.34;51.99;98692.95;109510;1251;59301;-76
2023/07/04 05:26:59;;;;;;;14.80;12.20;;;;;;;30.32;51.16;98691.64;109308;1251;61353;-76
2023/07/04 05:29:26;;;;;;;14.90;12.00;;;;;;;30.37;51.16;98693.02;109527;1251;64054;-76
2023/07/04 05:31:52;;;;;;;11.60;10.40;;;;;;;30.52;51.07;98694.73;109508;1251;59260;-75
2023/07/04 05:34:19;;;;;;;12.20;10.90;;;;;;;30.83;50.84;98695.07;109450;1253;59737;-75
2023/07/04 05:36:45;;;;;;;13.40;11.00;;;;;;;31.01;49.45;98697.91;109483;1253;58970;-72
2023/07/04 05:39:11;;;;;;;13.00;10.80;;;;;;;31.04;49.17;98699.58;109460;1253;59049;-80
2023/07/04 05:41:39;;;;;;;15.70;11.20;;;;;;;31.12;48.71;98699.58;109485;1251;59078;-80
2023/07/04 05:44:07;;;;;;;11.50;10.40;;;;;;;31.18;47.70;98703.48;109477;1251;59046;-79
2023/07/04 05:46:35;;;;;;;12.00;9.70;;;;;;;31.09;47.02;98698.63;109506;1251;58934;-76
2023/07/04 05:49:03;;;;;;;14.70;10.50;;;;;;;31.02;46.75;98700.04;109028;1255;66317;-82
2023/07/04 05:51:30;;;;;;;13.70;10.00;;;;;;;31.09;46.55;98700.45;108943;1255;60070;-82
2023/07/04 05:53:56;;;;;;;14.80;9.70;;;;;;;31.16;46.31;98701.91;109085;1255;62561;-80
2023/07/04 05:56:30;;;;;;;14.70;9.80;;;;;;;31.18;45.10;98703.88;109075;1255;58943;-77
2023/07/04 05:58:58;;;;;;;12.60;9.50;;;;;;;31.16;44.87;98703.56;109078;1255;59033;-79
2023/07/04 06:01:32;;;;;;;14.70;9.20;;;;;;;31.16;44.58;98706.53;109069;1255;66150;-78
2023/07/04 06:04:04;;;;;;;14.30;9.50;;;;;;;31.25;44.33;98711.52;109145;1255;60332;-78
2023/07/04 06:06:39;;;;;;;16.90;9.80;;;;;;;31.35;43.92;98709.42;109040;1255;64016;-78
2023/07/04 06:09:08;;;;;;;15.00;9.70;;;;;;;31.44;43.31;98712.41;109074;1255;59023;-78
2023/07/04 06:11:38;;;;;;;12.30;8.90;;;;;;;31.39;42.87;98712.80;109142;1255;58836;-78
2023/07/04 06:14:05;;;;;;;16.60;9.40;;;;;;;31.38;43.22;98711.52;109144;1255;73797;-79
2023/07/04 06:16:34;;;;;;;12.20;9.00;;;;;;;31.49;42.74;98712.14;109153;1255;59497;-77
2023/07/04 06:19:01;;;;;;;13.20;9.20;;;;;;;31.38;41.76;98715.48;109002;1255;64523;-79
2023/07/04 06:21:27;;;;;;;12.50;9.00;;;;;;;31.26;42.15;98714.30;109099;1255;58985;-78
2023/07/04 06:23:56;;;;;;;12.20;8.30;;;;;;;31.24;41.69;98713.88;109136;1255;59149;-78
2023/07/04 06:26:27;;;;;;;13.10;9.60;;;;;;;31.15;41.91;98714.73;109309;1251;65776;-78
2023/07/04 06:28:55;;;;;;;11.00;8.60;;;;;;;31.24;41.92;98716.95;109331;1252;59216;-79
2023/07/04 06:31:21;;;;;;;15.40;8.60;;;;;;;31.13;41.07;98718.48;109522;1251;62401;-77
2023/07/04 06:33:48;;;;;;;12.30;8.70;;;;;;;30.89;40.89;98721.15;109305;1251;59030;-77
2023/07/04 06:36:15;;;;;;;14.00;9.30;;;;;;;30.63;41.37;98723.73;109550;1252;58909;-77
2023/07/04 06:38:42;;;;;;;13.60;9.50;;;;;;;30.50;42.11;98729.65;109542;1251;65758;-79
2023/07/04 06:41:11;;;;;;;14.70;9.90;;;;;;;30.56;42.41;98730.42;109547;1252;60440;-78
2023/07/04 06:43:43;;;;;;;12.80;9.00;;;;;;;30.72;42.82;98732.41;109563;1251;64074;-78
2023/07/04 06:46:18;;;;;;;11.60;9.10;;;;;;;30.88;42.40;98728.84;109544;1251;58967;-78
2023/07/04 06:48:48;;;;;;;12.20;8.90;;;;;;;30.84;41.69;98730.95;109528;1251;58881;-78
2023/07/04 06:51:16;;;;;;;13.30;9.20;;;;;;;30.73;41.79;98732.53;109510;1255;64506;-79
2023/07/04 06:53:44;;;;;;;13.50;9.80;;;;;;;30.63;41.02;98729.95;109484;1253;59864;-77
2023/07/04 06:56:17;;;;;;;13.20;8.90;;;;;;;30.34;40.69;98733.64;109263;1252;62740;-78
2023/07/04 06:58:52;;;;;;;14.80;9.50;;;;;;;29.93;41.26;98738.23;109511;1251;59011;-78
2023/07/04 07:01:22;;;;;;;17.90;9.20;;;;;;;29.84;41.94;98738.29;109517;1251;59075;-77
2023/07/04 07:03:49;;;;;;;11.20;8.60;;;;;;;29.90;41.95;98739.81;109308;1251;64806;-79
2023/07/04 07:06:16;;;;;;;13.30;9.00;;;;;;;29.91;41.74;98738.86;109517;1251;59845;-78
2023/07/04 07:08:43;;;;;;;15.70;9.00;;;;;;;29.97;41.88;98741.60;109542;1252;62494;-78
2023/07/04 07:11:12;;;;;;;12.20;8.60;;;;;;;29.98;41.77;98740.14;109468;1251;59009;-78
2023/07/04 07:13:40;;;;;;;12.50;8.70;;;;;;;29.95;42.03;98740.73;109560;1251;59193;-77
2023/07/04 07:16:14;;;;;;;10.10;7.90;;;;;;;30.02;41.64;98743.31;109542;1251;65952;-79
2023/07/04 07:18:42;;;;;;;10.20;7.70;;;;;;;29.84;40.72;98744.71;109534;1251;60279;-79
2023/07/04 07:21:11;;;;;;;13.40;8.60;;;;;;;29.62;41.17;98741.88;109495;1251;64597;-78
2023/07/04 07:23:39;;;;;;;10.00;7.30;;;;;;;29.58;41.50;98742.93;109506;1251;59174;-78
2023/07/04 07:26:09;;;;;;;10.30;8.20;;;;;;;29.60;41.47;98743.08;109547;1251;58996;-79
2023/07/04 07:28:40;;;;;;;13.50;7.00;;;;;;;29.44;41.06;98747.90;109535;1251;64720;-78
2023/07/04 07:31:08;;;;;;;11.10;7.20;;;;;;;29.15;41.04;98748.00;109551;1251;60261;-79
2023/07/04 07:33:37;;;;;;;11.50;7.50;;;;;;;28.87;41.37;98749.29;109506;1251;63837;-78
2023/07/04 07:36:25;;;;;;;13.20;8.00;;;;;;;28.64;41.72;98753.27;109526;1251;59094;-78
2023/07/04 07:38:54;;;;;;;12.80;7.20;;;;;;;28.45;42.62;98753.09;109567;1251;58979;-79
2023/07/04 07:41:25;;;;;;;11.90;6.70;;;;;;;28.37;42.85;98752.14;109541;1253;65260;-77
2023/07/04 07:43:52;;;;;;;9.90;7.40;;;;;;;28.18;42.44;98754.60;109535;1251;60628;-77
2023/07/04 07:46:18;;;;;;;12.20;7.10;;;;;;;28.03;42.78;98753.70;109495;1251;64221;-78
2023/07/04 07:48:46;;;;;;;11.00;7.40;;;;;;;27.86;42.81;98754.52;109525;1252;58998;-79
2023/07/04 07:51:13;;;;;;;12.50;7.80;;;;;;;27.84;43.28;98754.73;109555;1251;58906;-79
2023/07/04 07:53:42;;;;;;;13.80;6.60;;;;;;;27.93;43.52;98752.76;109537;1251;66196;-79
2023/07/04 07:56:12;;;;;;;8.70;4.70;;;;;;;27.95;42.57;98749.96;109512;1254;61556;-77
2023/07/04 07:58:38;;;;;;;;;;;;;;;27.90;41.65;98753.03;109575;1251;62770;-79
2023/07/04 08:01:25;;;;;;;12.30;4.60;;;;;;;27.77;40.60;98753.92;109492;1251;58965;-77
2023/07/04 08:03:52;;;;;;;6.10;4.30;;;;;;;27.51;40.11;98753.47;109477;1255;58936;-77
2023/07/04 08:06:20;;;;;;;9.20;4.10;;;;;;;27.38;40.28;98758.54;109509;1251;66045;-80
2023/07/04 08:08:47;;;;;;;6.70;4.40;;;;;;;27.36;40.02;98755.05;109502;1254;59890;-79
2023/07/04 08:11:14;;;;;;;8.60;4.20;;;;;;;27.34;39.91;98754.09;109531;1251;64151;-78
2023/07/04 08:13:41;;;;;;;6.30;3.30;;;;;;;27.34;39.96;98758.00;109523;1251;59099;-77
2023/07/04 08:19:48;;;;;;;5.80;3.70;;;;;;;27.44;40.53;98753.92;109503;1251;65834;-80
2023/07/04 08:22:15;;;;;;;4.50;3.20;;;;;;;27.59;40.35;98758.02;109522;1251;59938;-80
2023/07/04 08:24:41;;;;;;;4.60;3.40;;;;;;;27.62;39.98;98757.46;109525;1251;63737;-77
2023/07/04 08:27:08;;;;;;;6.80;4.10;;;;;;;27.67;40.05;98756.00;109489;1253;59347;-78
2023/07/04 08:29:34;;;;;;;5.60;3.90;;;;;;;27.76;39.99;98757.89;109511;1251;58927;-79
2023/07/04 08:32:01;;;;;;;5.80;3.60;;;;;;;27.83;39.72;98753.33;109579;1251;66027;-79
2023/07/04 08:34:27;;;;;;;4.60;3.20;;;;;;;27.87;39.60;98753.30;109521;1251;58992;-78
2023/07/04 08:36:54;;;;;;;7.50;3.60;;;;;;;27.85;38.67;98753.73;109499;1251;62503;-78
2023/07/04 08:39:20;;;;;;;5.20;3.60;;;;;;;27.81;39.23;98753.95;109497;1251;59379;-78
2023/07/04 08:42:02;;;;;;;6.10;3.80;;;;;;;27.91;39.32;98747.45;109517;1253;58987;-78
2023/07/04 08:44:43;;;;;;;5.80;3.70;;;;;;;27.95;38.87;98745.41;109546;1252;66138;-78
2023/07/04 08:47:16;;;;;;;5.60;3.60;;;;;;;27.93;38.62;98744.08;109560;1251;59867;-79
2023/07/04 08:49:54;;;;;;;5.40;4.30;;;;;;;27.77;37.71;98746.97;109475;1251;63883;-79
2023/07/04 08:52:29;;;;;;;4.60;3.80;;;;;;;27.63;38.35;98745.58;109525;1251;59069;-78
2023/07/04 08:54:55;;;;;;;7.60;4.00;;;;;;;27.70;38.41;98742.25;109530;1251;59101;-79
2023/07/04 08:57:37;;;;;;;5.10;4.40;;;;;;;27.73;38.56;98742.86;109535;1251;64737;-78
2023/07/04 09:00:36;;;;;;;6.00;4.20;;;;;;;27.96;39.04;98745.27;109573;1251;59025;-79
2023/07/04 09:03:09;;;;;;;8.60;4.90;;;;;;;28.04;38.54;98748.71;108829;1260;63747;-78
2023/07/04 09:05:46;;;;;;;6.30;5.00;;;;;;;28.00;38.34;98754.81;108848;1264;59468;-77
2023/07/04 09:08:22;;;;;;;7.50;5.10;;;;;;;27.93;38.44;98752.85;108897;1260;59078;-79
2023/07/04 09:10:52;;;;;;;6.80;5.00;;;;;;;27.96;39.24;98750.50;108915;1261;66184;-80
2023/07/04 09:13:31;;;;;;;6.10;5.30;;;;;;;28.20;39.42;98745.34;108882;1261;59885;-78
2023/07/04 09:16:05;;;;;;;6.00;5.20;;;;;;;28.38;38.70;98753.23;108887;1260;63307;-79
2023/07/04 09:18:52;;;;;;;7.90;5.80;;;;;;;28.35;37.72;98752.49;108883;1260;59077;-78
2023/07/04 09:21:21;;;;;;;7.90;5.10;;;;;;;28.28;38.07;98756.05;108849;1262;58967;-78
2023/07/04 09:23:50;;;;;;;5.90;5.00;;;;;;;28.30;38.40;98756.23;108875;1260;65862;-76
2023/07/04 09:26:26;;;;;;;6.30;5.30;;;;;;;28.37;38.54;98757.02;108913;1260;59430;-78
2023/07/04 09:28:54;;;;;;;6.80;6.10;;;;;;;28.48;38.62;98758.56;108857;1260;63802;-79
2023/07/04 09:31:29;;;;;;;9.20;7.20;;;;;;;28.53;38.14;98756.55;108868;1260;59001;-79
2023/07/04 09:34:00;;;;;;;7.40;6.70;;;;;;;28.59;38.04;98756.66;108831;1260;59144;-76
2023/07/04 09:36:32;;;;;;;11.20;7.20;;;;;;;28.61;37.72;98756.09;108852;1261;64531;-78
2023/07/04 09:39:04;;;;;;;10.30;7.30;;;;;;;28.70;37.56;98751.02;108976;1251;166586;-77
2023/07/04 09:41:33;;;;;;;9.00;7.50;;;;;;;28.91;37.73;98753.52;109438;1251;65101;-77
2023/07/04 09:44:14;;;;;;;8.70;6.80;;;;;;;28.96;36.87;98757.21;109453;1251;59088;-78
2023/07/04 09:46:47;;;;;;;10.70;8.60;;;;;;;28.80;36.66;98752.83;109550;1251;59012;-78
2023/07/04 09:49:28;;;;;;;9.00;7.10;;;;;;;28.73;37.30;98750.91;109466;1251;65704;-79
2023/07/04 09:52:17;;;;;;;9.10;6.70;;;;;;;28.79;36.97;98753.30;109530;1251;60361;-77
2023/07/04 09:54:44;;;;;;;10.70;6.70;;;;;;;28.66;37.26;98755.15;109487;1251;62547;-76
2023/07/04 09:57:29;;;;;;;7.00;6.20;;;;;;;28.70;38.05;98752.13;109498;1251;58951;-78
2023/07/04 10:00:19;;;;;;;7.80;6.10;;;;;;;28.85;38.36;98745.26;109479;1251;59042;-78
2023/07/04 10:02:48;;;;;;;8.30;6.70;;;;;;;28.92;38.01;98743.66;109479;1251;64485;-78
2023/07/04 10:05:23;;;;;;;;;;;;;;;28.88;37.67;98747.46;109548;1251;58941;-78
2023/07/04 10:08:10;;;;;;;6.80;5.40;;;;;;;28.88;38.17;98743.06;109483;1251;63789;-78
2023/07/04 10:10:50;;;;;;;6.40;5.20;;;;;;;28.94;38.41;98738.11;109542;1252;58984;-77
2023/07/04 10:13:20;;;;;;;7.90;5.70;;;;;;;28.86;38.01;98737.27;109352;1251;59194;-77
2023/07/04 10:15:48;;;;;;;9.20;7.20;;;;;;;28.80;37.86;98741.00;109527;1251;66068;-78
2023/07/04 10:18:25;;;;;;;;;;;;;;;28.73;37.49;98744.23;109530;1251;59885;-77
2023/07/04 10:20:57;;;;;;;7.00;6.30;;;;;;;28.67;37.16;98743.67;109491;1251;64182;-78
2023/07/04 10:23:26;;;;;;;6.90;5.70;;;;;;;28.46;37.29;98744.89;109487;1251;58949;-78
2023/07/04 10:25:57;;;;;;;7.70;6.70;;;;;;;28.35;37.76;98744.68;109275;1251;59080;-78
2023/07/04 10:28:27;;;;;;;7.20;5.90;;;;;;;28.35;38.41;98741.02;109485;1251;66035;-79
2023/07/04 10:31:23;;;;;;;6.70;5.90;;;;;;;28.52;39.16;98737.95;109489;1251;59124;-77
2023/07/04 10:33:56;;;;;;;6.60;4.80;;;;;;;28.74;39.60;98737.78;108843;1261;62529;-78
2023/07/04 10:36:32;;;;;;;6.90;5.70;;;;;;;28.78;39.06;98738.34;108824;1264;59422;-77
2023/07/04 10:39:05;;;;;;;6.50;5.80;;;;;;;28.80;39.73;98735.27;108882;1260;59164;-77
2023/07/04 10:41:38;;;;;;;9.10;6.00;;;;;;;28.86;39.44;98740.48;108914;1260;67439;-90
2023/07/04 10:44:16;;;;;;;6.20;5.60;;;;;;;28.88;39.52;98735.85;108929;1260;59767;-90
2023/07/04 10:46:48;;;;;;;6.30;5.20;;;;;;;28.86;39.36;98733.51;108887;1260;62515;-92
2023/07/04 10:49:19;;;;;;;5.70;4.70;;;;;;;28.80;39.42;98738.56;108875;1260;59333;-89
2023/07/04 10:51:50;;;;;;;5.90;5.40;;;;;;;28.78;39.95;98735.61;108941;1260;58965;-89
2023/07/04 10:54:19;;;;;;;5.00;4.50;;;;;;;28.76;38.56;98736.73;108693;1260;64854;-88
2023/07/04 10:56:50;;;;;;;7.40;5.10;;;;;;;28.63;38.30;98734.20;108884;1261;60085;-89
2023/07/04 10:59:22;;;;;;;5.00;4.00;;;;;;;28.72;38.81;98732.98;108787;1260;64211;-89
2023/07/04 11:02:25;;;;;;;5.30;3.90;;;;;;;28.77;38.42;98727.73;108929;1260;59198;-88
2023/07/04 11:04:57;;;;;;;7.20;3.50;;;;;;;28.80;38.15;98727.92;108606;1268;59001;-89
2023/07/04 11:07:26;;;;;;;4.60;3.50;;;;;;;28.61;37.10;98728.13;108590;1267;65750;-87
2023/07/04 11:09:57;;;;;;;2.70;2.30;;;;;;;28.36;36.42;98728.06;108732;1260;60258;-88
2023/07/04 11:12:28;;;;;;;3.30;2.80;;;;;;;28.21;37.08;98730.55;108851;1259;62610;-89
2023/07/04 11:15:01;;;;;;;4.70;3.30;;;;;;;28.25;37.74;98728.27;108981;1260;59585;-87
2023/07/04 11:17:31;;;;;;;3.60;3.10;;;;;;;28.23;37.99;98728.63;108981;1259;59221;-87
2023/07/04 11:20:12;;;;;;;3.20;2.90;;;;;;;28.28;38.17;98727.71;108999;1259;64525;-86
2023/07/04 11:22:53;;;;;;;3.60;3.20;;;;;;;28.27;38.48;98720.39;109025;1259;60556;-88
2023/07/04 11:25:33;;;;;;;4.40;3.00;;;;;;;28.37;39.27;98719.11;108984;1259;63786;-89
2023/07/04 11:28:27;;;;;;;3.80;2.40;;;;;;;28.54;39.52;98720.88;108942;1260;59547;-89
2023/07/04 11:31:18;;;;;;;4.10;2.80;;;;;;;28.73;39.52;98721.06;109006;1260;59027;-90
2023/07/04 11:33:55;;;;;;;2.90;2.70;;;;;;;28.92;39.51;98716.44;109008;1259;66127;-89
2023/07/04 11:36:33;;;;;;;3.40;2.20;;;;;;;29.13;39.40;98715.21;109021;1259;59980;-87
2023/07/04 11:39:03;;;;;;;3.10;2.40;;;;;;;29.05;38.81;98712.73;109010;1259;64087;-90
2023/07/04 11:41:38;;;;;;;2.40;2.00;;;;;;;29.02;38.45;98712.20;109233;1251;58299;-89
2023/07/04 11:44:43;;;;;;;3.10;2.30;;;;;;;29.01;38.75;98714.09;109372;1251;59025;-89
2023/07/04 11:47:15;;;;;;;4.40;2.00;;;;;;;29.05;39.28;98717.02;108918;1260;64593;-86
2023/07/04 11:49:54;;;;;;;2.20;1.80;;;;;;;29.20;38.93;98716.42;108958;1260;59281;-89
2023/07/04 11:52:27;;;;;;;3.60;2.20;;;;;;;29.35;38.63;98712.02;108898;1260;62544;-89
2023/07/04 11:55:00;;;;;;;2.50;1.90;;;;;;;29.44;38.49;98704.69;108882;1260;59074;-87
2023/07/04 11:57:59;;;;;;;7.40;2.30;;;;;;;29.66;38.70;98705.59;108897;1260;59241;-90
2023/07/04 12:00:38;;;;;;;3.50;2.10;;;;;;;29.94;37.96;98705.67;108901;1260;66119;-88
2023/07/04 12:03:16;;;;;;;3.10;1.60;;;;;;;30.09;37.36;98706.48;108912;1260;59072;-88
2023/07/04 12:05:50;;;;;;;2.70;1.80;;;;;;;30.27;37.14;98709.98;108898;1260;64415;-88
2023/07/04 12:08:22;;;;;;;3.60;1.90;;;;;;;30.54;37.00;98708.46;108853;1260;58996;-88
2023/07/04 12:10:50;;;;;;;1.80;1.60;;;;;;;30.75;36.83;98711.09;108902;1260;59388;-89
2023/07/04 12:13:20;;;;;;;3.00;1.80;;;;;;;30.82;36.18;98707.64;108880;1260;66534;-88
2023/07/04 12:15:51;;;;;;;3.40;1.90;;;;;;;30.89;36.59;98702.55;108866;1260;59531;-89
2023/07/04 12:18:26;;;;;;;3.30;1.60;;;;;;;30.83;36.21;98702.62;108895;1260;62857;-90
2023/07/04 12:20:54;;;;;;;2.60;1.70;;;;;;;30.56;36.03;98703.98;108864;1260;59287;-89
2023/07/04 12:23:21;;;;;;;1.90;1.30;;;;;;;30.36;36.06;98705.39;109132;1251;59015;-91
2023/07/04 12:25:51;;;;;;;7.00;2.00;;;;;;;30.28;35.86;98704.80;109555;1251;66131;-91